Time;durP1;ratioP1;P1;durP2;ratioP2;P2;SDS_P1;SDS_P2;PMS_P1;PMS_P2;Temp;Humidity;BMP_temperature;BMP_pressure;BME280_temperature;BME280_humidity;BME280_pressure;Samples;Min_cycle;Max_cycle;Signal;HPM_P1;HPM_P2
2023/05/18 00:00:22;;;;;;;9.10;4.93;;;;;;;15.61;100.00;94431.00;5101840;27;20023;-88
2023/05/18 00:02:48;;;;;;;10.57;4.78;;;;;;;15.81;100.00;94427.91;5119032;27;20106;-88
2023/05/18 00:05:13;;;;;;;7.47;4.78;;;;;;;15.93;100.00;94435.34;5118876;27;20411;-88
2023/05/18 00:07:39;;;;;;;12.18;5.20;;;;;;;15.49;100.00;94429.66;5118851;27;20035;-88
2023/05/18 00:10:06;;;;;;;11.13;5.45;;;;;;;16.10;100.00;94437.31;5118852;27;20042;-88
2023/05/18 00:12:32;;;;;;;8.50;5.20;;;;;;;16.28;100.00;94439.31;5101011;27;20037;-87
2023/05/18 00:14:57;;;;;;;14.70;7.05;;;;;;;15.81;100.00;94440.34;5099366;28;20035;-88
2023/05/18 00:17:22;;;;;;;11.68;6.22;;;;;;;15.82;100.00;94444.53;5082842;28;20027;-87
2023/05/18 00:19:49;;;;;;;12.05;6.85;;;;;;;15.75;100.00;94449.44;5082839;28;20023;-87
2023/05/18 00:22:17;;;;;;;14.18;7.13;;;;;;;15.62;100.00;94443.13;5083804;28;20035;-87
2023/05/18 00:24:46;;;;;;;13.55;6.47;;;;;;;15.94;100.00;94444.03;5090626;27;20066;-87
2023/05/18 00:27:12;;;;;;;15.00;7.03;;;;;;;15.75;100.00;94441.53;5116144;28;20027;-87
2023/05/18 00:29:38;;;;;;;18.08;7.75;;;;;;;15.62;100.00;94448.41;5084421;28;20087;-87
2023/05/18 00:32:03;;;;;;;15.85;7.47;;;;;;;15.89;100.00;94450.22;5103275;28;20031;-87
2023/05/18 00:34:29;;;;;;;11.77;7.47;;;;;;;16.08;100.00;94447.41;5111176;28;20031;-87
2023/05/18 00:36:54;;;;;;;11.90;7.60;;;;;;;15.71;100.00;94440.56;5092067;28;20083;-87
2023/05/18 00:39:20;;;;;;;12.93;7.00;;;;;;;15.78;100.00;94447.00;5102863;28;20031;-87
2023/05/18 00:41:45;;;;;;;12.20;6.13;;;;;;;15.99;100.00;94445.78;5119735;27;20079;-87
2023/05/18 00:44:11;;;;;;;14.70;6.88;;;;;;;15.87;100.00;94444.41;5119850;28;20164;-87
2023/05/18 00:46:36;;;;;;;16.27;7.88;;;;;;;15.73;100.00;94438.41;5119654;28;20042;-87
2023/05/18 00:49:02;;;;;;;15.20;7.07;;;;;;;15.99;100.00;94451.06;5137934;28;20062;-87
2023/05/18 00:51:28;;;;;;;10.77;7.32;;;;;;;15.87;100.00;94448.94;5102768;28;20031;-88
2023/05/18 00:53:55;;;;;;;12.25;5.93;;;;;;;16.21;100.00;94451.09;5084766;28;20145;-88
2023/05/18 00:56:25;;;;;;;9.13;5.82;;;;;;;16.21;100.00;94443.16;5080726;28;20035;-88
2023/05/18 00:58:55;;;;;;;11.07;6.07;;;;;;;16.32;100.00;94453.47;5081816;28;20447;-88
2023/05/18 01:01:35;;;;;;;10.35;6.05;;;;;;;16.23;100.00;94450.78;5081219;28;20031;-87
2023/05/18 01:04:02;;;;;;;12.57;6.50;;;;;;;15.85;100.00;94457.16;5097756;28;20118;-88
2023/05/18 01:06:39;;;;;;;13.18;6.43;;;;;;;16.21;100.00;94460.88;5097842;28;20508;-88
2023/05/18 01:09:06;;;;;;;13.93;6.78;;;;;;;16.06;100.00;94457.50;5082456;28;20032;-88
2023/05/18 01:11:51;;;;;;;11.35;5.95;;;;;;;15.94;100.00;94458.03;5080924;28;20042;-88
2023/05/18 01:14:18;;;;;;;8.32;5.25;;;;;;;16.03;100.00;94455.47;5097629;28;20051;-88
2023/05/18 01:17:13;;;;;;;18.65;8.63;;;;;;;15.57;100.00;94445.88;5097587;28;20034;-88
2023/05/18 01:19:50;;;;;;;15.95;7.47;;;;;;;15.82;100.00;94441.91;5117331;28;20349;-88
2023/05/18 01:22:28;;;;;;;10.45;7.05;;;;;;;15.70;100.00;94445.03;5117873;28;20078;-88
2023/05/18 01:24:58;;;;;;;14.82;8.55;;;;;;;15.99;100.00;94440.50;5117636;28;20057;-88
2023/05/18 01:27:24;;;;;;;17.05;7.80;;;;;;;16.01;100.00;94451.56;5117957;28;20030;-88
2023/05/18 01:29:50;;;;;;;9.35;6.75;;;;;;;15.95;100.00;94441.09;5100920;28;20092;-88
2023/05/18 01:32:20;;;;;;;12.32;7.30;;;;;;;16.01;100.00;94439.13;5117516;28;20039;-88
2023/05/18 01:34:46;;;;;;;14.80;7.65;;;;;;;15.83;100.00;94443.47;5117912;27;20118;-88
2023/05/18 01:37:11;;;;;;;13.88;7.38;;;;;;;15.80;100.00;94438.78;5104583;27;20027;-88
2023/05/18 01:39:37;;;;;;;14.70;8.05;;;;;;;15.85;100.00;94436.00;5121705;27;20027;-88
2023/05/18 01:42:15;;;;;;;12.50;7.38;;;;;;;16.16;100.00;94430.06;5104830;27;20062;-88
2023/05/18 01:44:47;;;;;;;12.65;8.05;;;;;;;15.99;100.00;94429.94;5121660;27;20031;-88
2023/05/18 01:47:16;;;;;;;13.60;7.85;;;;;;;16.09;100.00;94417.25;5121412;27;20558;-88
2023/05/18 01:49:53;;;;;;;11.23;7.57;;;;;;;15.99;100.00;94429.94;5104596;27;20027;-88
2023/05/18 01:52:22;;;;;;;18.10;8.20;;;;;;;15.47;100.00;94417.81;5121782;27;20038;-88
2023/05/18 01:54:53;;;;;;;10.32;7.18;;;;;;;15.87;100.00;94422.53;5121207;27;20031;-88
2023/05/18 01:57:20;;;;;;;12.57;7.30;;;;;;;15.90;100.00;94417.44;5121533;27;20023;-88
2023/05/18 01:59:46;;;;;;;11.70;7.15;;;;;;;15.83;100.00;94417.81;5104401;27;20019;-88
2023/05/18 02:02:12;;;;;;;13.77;7.63;;;;;;;15.77;100.00;94415.59;5104295;27;20407;-88
2023/05/18 02:04:37;;;;;;;11.75;7.57;;;;;;;15.77;100.00;94415.59;5121066;27;20027;-88
2023/05/18 02:07:03;;;;;;;15.48;8.88;;;;;;;15.53;100.00;94409.50;5104168;27;20412;-88
2023/05/18 02:09:28;;;;;;;13.73;9.55;;;;;;;15.45;100.00;94412.06;5104210;27;20027;-88
2023/05/18 02:11:54;;;;;;;14.60;8.43;;;;;;;15.46;100.00;94403.06;5104155;27;20088;-88
2023/05/18 02:14:19;;;;;;;14.25;8.57;;;;;;;15.07;100.00;94419.16;5120984;27;20088;-88
2023/05/18 02:16:45;;;;;;;13.70;8.68;;;;;;;14.89;100.00;94412.91;5120982;27;20030;-88
2023/05/18 02:19:13;;;;;;;17.15;9.07;;;;;;;15.07;100.00;94415.72;5121021;27;20041;-88
2023/05/18 02:21:40;;;;;;;11.15;7.93;;;;;;;15.27;100.00;94411.91;5121209;27;20114;-88
2023/05/18 02:24:06;;;;;;;15.70;9.60;;;;;;;15.26;100.00;94410.34;5104012;27;20392;-88
2023/05/18 02:26:31;;;;;;;13.30;9.55;;;;;;;14.84;100.00;94408.50;5120810;27;20114;-88
2023/05/18 02:28:57;;;;;;;17.33;10.50;;;;;;;15.01;100.00;94409.75;5120730;27;20416;-88
2023/05/18 02:31:22;;;;;;;16.65;9.93;;;;;;;15.18;100.00;94401.25;5103684;27;20031;-88
2023/05/18 02:33:48;;;;;;;13.55;9.23;;;;;;;15.38;100.00;94399.25;5103547;27;20027;-88
2023/05/18 02:36:13;;;;;;;13.27;8.85;;;;;;;15.27;100.00;94396.06;5120459;27;20404;-88
2023/05/18 02:38:40;;;;;;;17.73;8.68;;;;;;;15.54;100.00;94395.22;5120440;27;20491;-88
2023/05/18 02:41:06;;;;;;;16.27;8.80;;;;;;;15.55;100.00;94404.69;5103544;27;20031;-88
2023/05/18 02:43:32;;;;;;;15.35;8.68;;;;;;;15.26;100.00;94410.34;5120519;27;20343;-88
2023/05/18 02:45:57;;;;;;;11.30;7.95;;;;;;;15.45;100.00;94412.06;5138378;27;20039;-88
2023/05/18 02:48:23;;;;;;;14.40;9.20;;;;;;;15.43;100.00;94404.44;5137799;27;20027;-88
2023/05/18 02:50:48;;;;;;;14.80;8.18;;;;;;;15.46;100.00;94398.56;5103452;27;20054;-87
2023/05/18 02:53:14;;;;;;;14.00;9.05;;;;;;;15.43;100.00;94404.44;5139663;27;20050;-87
2023/05/18 02:55:40;;;;;;;14.05;8.48;;;;;;;15.32;100.00;94395.94;5104577;27;20065;-87
2023/05/18 02:58:05;;;;;;;12.57;8.15;;;;;;;15.52;100.00;94401.88;5093526;27;20028;-88
2023/05/18 03:00:31;;;;;;;11.55;7.60;;;;;;;15.50;100.00;94394.25;5117629;27;20062;-88
2023/05/18 03:03:01;;;;;;;17.58;8.35;;;;;;;15.47;100.00;94391.41;5092855;27;20027;-88
2023/05/18 03:05:27;;;;;;;12.15;8.18;;;;;;;15.38;100.00;94396.63;5105811;28;20062;-88
2023/05/18 03:07:53;;;;;;;15.10;9.10;;;;;;;15.38;100.00;94394.78;5097349;27;20027;-88
2023/05/18 03:10:19;;;;;;;12.52;8.68;;;;;;;15.52;100.00;94394.72;5121181;27;20063;-87
2023/05/18 03:12:44;;;;;;;18.60;10.07;;;;;;;15.22;100.00;94394.31;5120934;27;20027;-88
2023/05/18 03:15:14;;;;;;;15.75;9.43;;;;;;;15.65;100.00;94392.34;5104181;27;20049;-88
2023/05/18 03:17:43;;;;;;;18.15;9.38;;;;;;;15.50;100.00;94394.25;5121412;27;20042;-88
2023/05/18 03:20:14;;;;;;;14.88;9.77;;;;;;;14.92;100.00;94395.69;5121038;27;20399;-88
2023/05/18 03:22:40;;;;;;;20.92;9.32;;;;;;;15.09;100.00;94395.88;5104131;27;20027;-87
2023/05/18 03:25:06;;;;;;;19.73;8.88;;;;;;;15.48;100.00;94393.75;5120928;27;20031;-87
2023/05/18 03:27:31;;;;;;;12.73;8.25;;;;;;;15.40;100.00;94405.81;5103980;27;20031;-88
2023/05/18 03:29:57;;;;;;;16.55;8.55;;;;;;;14.94;100.00;94406.75;5103867;27;20038;-87
2023/05/18 03:32:23;;;;;;;15.23;8.50;;;;;;;15.06;100.00;94407.03;5104101;27;20027;-87
2023/05/18 03:34:50;;;;;;;12.95;7.07;;;;;;;14.98;100.00;94410.34;5103987;27;20031;-87
2023/05/18 03:37:16;;;;;;;15.27;6.95;;;;;;;15.57;100.00;94404.41;5120751;27;20034;-87
2023/05/18 03:39:42;;;;;;;10.65;6.28;;;;;;;15.24;100.00;94418.53;5103840;27;20038;-87
2023/05/18 03:42:17;;;;;;;12.35;6.88;;;;;;;15.57;100.00;94417.59;5120553;27;20412;-87
2023/05/18 03:44:42;;;;;;;9.68;6.32;;;;;;;15.50;100.00;94422.53;5103731;27;20035;-87
2023/05/18 03:47:08;;;;;;;11.82;6.28;;;;;;;14.96;100.00;94430.97;5120433;27;20026;-87
2023/05/18 03:49:33;;;;;;;9.18;5.07;;;;;;;15.16;100.00;94421.09;5120724;27;20076;-88
2023/05/18 03:51:59;;;;;;;500.00;26.13;;;;;;;14.35;100.00;94417.78;5120342;27;20027;-88
2023/05/18 03:54:25;;;;;;;85.18;11.48;;;;;;;13.48;100.00;94399.56;5120260;27;20023;-88
2023/05/18 03:56:50;;;;;;;10.98;7.18;;;;;;;13.83;100.00;94411.44;5120391;27;20122;-88
2023/05/18 03:59:15;;;;;;;13.10;6.55;;;;;;;14.68;100.00;94423.00;5120243;27;20076;-87
2023/05/18 04:01:41;;;;;;;778.60;41.22;;;;;;;14.77;100.00;94434.47;5120292;27;20044;-87
2023/05/18 04:04:07;;;;;;;12.43;7.68;;;;;;;14.83;100.00;94438.59;5120280;27;20031;-87
2023/05/18 04:06:34;;;;;;;15.45;7.75;;;;;;;14.50;100.00;94453.63;5120098;27;20049;-87
2023/05/18 04:09:03;;;;;;;12.90;7.68;;;;;;;14.42;100.00;94455.88;5120046;27;20424;-88
2023/05/18 04:11:29;;;;;;;9.18;7.00;;;;;;;14.92;100.00;94451.06;5103363;27;20023;-87
2023/05/18 04:13:56;;;;;;;10.05;6.93;;;;;;;15.17;100.00;94463.03;5103305;27;20192;-89
2023/05/18 04:16:22;;;;;;;12.25;6.80;;;;;;;15.35;100.00;94468.50;5120255;27;20159;-89
2023/05/18 04:18:48;;;;;;;18.27;6.53;;;;;;;15.09;100.00;94472.41;5119955;27;20056;-89
2023/05/18 04:21:14;;;;;;;7.55;5.80;;;;;;;15.17;100.00;94476.22;5119917;27;20027;-89
2023/05/18 04:23:44;;;;;;;11.63;5.78;;;;;;;15.11;100.00;94474.75;5099802;28;20118;-88
2023/05/18 04:26:10;;;;;;;8.38;5.50;;;;;;;15.14;100.00;94476.81;5099778;28;20027;-88
2023/05/18 04:28:38;;;;;;;9.70;5.78;;;;;;;14.84;100.00;94484.97;5116404;28;20023;-88
2023/05/18 04:31:03;;;;;;;11.18;5.25;;;;;;;14.96;100.00;94478.47;5119671;27;20077;-88
2023/05/18 04:33:29;;;;;;;680.45;29.25;;;;;;;15.02;100.00;94479.91;5091087;28;20051;-88
2023/05/18 04:35:54;;;;;;;16.88;4.93;;;;;;;14.87;100.00;94474.91;5103583;28;20081;-88
2023/05/18 04:38:22;;;;;;;7.72;5.20;;;;;;;15.09;100.00;94482.97;5100893;28;20023;-88
2023/05/18 04:40:49;;;;;;;6.60;5.72;;;;;;;15.47;100.00;94483.81;5099596;28;20026;-88
2023/05/18 04:43:24;;;;;;;7.47;6.55;;;;;;;15.53;100.00;94486.06;5082815;28;20028;-88
2023/05/18 04:45:50;;;;;;;7.25;6.55;;;;;;;15.40;100.00;94492.13;5099105;28;20032;-87
2023/05/18 04:48:18;;;;;;;9.43;7.70;;;;;;;14.98;100.00;94503.47;5082614;28;20065;-87
2023/05/18 04:50:44;;;;;;;8.13;6.78;;;;;;;14.52;100.00;94497.09;5083172;28;20028;-87
2023/05/18 04:53:11;;;;;;;12.57;8.52;;;;;;;14.50;100.00;94499.25;5085955;28;20477;-87
2023/05/18 04:55:37;;;;;;;12.45;9.05;;;;;;;14.51;100.00;94494.75;5137050;28;20499;-86
2023/05/18 04:58:03;;;;;;;21.08;14.50;;;;;;;15.12;100.00;94498.22;5102693;28;20121;-87
2023/05/18 05:00:29;;;;;;;22.75;13.80;;;;;;;15.46;100.00;94490.97;5102712;28;20072;-87
2023/05/18 05:02:56;;;;;;;21.65;11.80;;;;;;;15.40;100.00;94492.94;5101916;28;20027;-87
2023/05/18 05:05:22;;;;;;;12.98;8.68;;;;;;;15.05;100.00;94497.78;5119361;28;20110;-88
2023/05/18 05:07:54;;;;;;;11.50;8.90;;;;;;;16.11;100.00;94504.19;5119532;28;20118;-87
2023/05/18 05:10:20;;;;;;;11.95;10.00;;;;;;;15.75;100.00;94507.56;5104193;27;20027;-88
2023/05/18 05:12:46;;;;;;;12.05;9.60;;;;;;;15.92;100.00;94502.47;5123531;27;20470;-88
2023/05/18 05:15:11;;;;;;;17.63;13.60;;;;;;;15.06;100.00;94506.50;5123481;27;20054;-88
2023/05/18 05:17:37;;;;;;;15.43;11.95;;;;;;;15.01;100.00;94504.75;5106698;27;20027;-88
2023/05/18 05:20:03;;;;;;;19.33;12.07;;;;;;;15.40;100.00;94500.84;5106945;27;20034;-88
2023/05/18 05:22:28;;;;;;;18.33;13.10;;;;;;;14.72;100.00;94505.00;5123312;27;20076;-89
2023/05/18 05:24:54;;;;;;;16.05;11.70;;;;;;;15.25;100.00;94498.50;5123153;27;20073;-88
2023/05/18 05:27:19;;;;;;;17.00;11.95;;;;;;;15.53;100.00;94498.50;5106787;27;20400;-88
2023/05/18 05:29:45;;;;;;;17.08;10.70;;;;;;;16.35;100.00;94506.53;5123634;27;20122;-88
2023/05/18 05:32:11;;;;;;;15.18;9.40;;;;;;;16.45;100.00;94505.50;5123299;27;20095;-89
2023/05/18 05:34:37;;;;;;;12.52;9.18;;;;;;;16.23;100.00;94501.78;5119208;28;20035;-88
2023/05/18 05:37:03;;;;;;;15.02;10.65;;;;;;;15.54;100.00;94510.63;5120844;28;20142;-88
2023/05/18 05:39:29;;;;;;;15.00;11.60;;;;;;;15.40;100.00;94511.41;5119675;28;20417;-88
2023/05/18 05:41:54;;;;;;;17.17;10.73;;;;;;;15.28;100.00;94500.56;5102786;28;20073;-88
2023/05/18 05:44:20;;;;;;;14.18;7.97;;;;;;;15.66;100.00;94500.34;5102495;28;20092;-88
2023/05/18 05:46:45;;;;;;;12.18;7.43;;;;;;;15.83;100.00;94512.16;5102533;28;20037;-88
2023/05/18 05:49:11;;;;;;;15.50;7.95;;;;;;;15.95;100.00;94507.16;5102497;28;20442;-89
2023/05/18 05:51:36;;;;;;;15.68;9.00;;;;;;;15.89;100.00;94515.47;5102269;28;20035;-88
2023/05/18 05:54:02;;;;;;;14.13;9.48;;;;;;;16.14;100.00;94521.28;5120412;28;20027;-88
2023/05/18 05:56:28;;;;;;;17.92;10.40;;;;;;;15.69;100.00;94526.16;5085490;28;20035;-88
2023/05/18 05:58:53;;;;;;;18.73;10.27;;;;;;;16.05;100.00;94526.50;5101998;28;20027;-88
2023/05/18 06:01:19;;;;;;;17.10;10.43;;;;;;;15.44;100.00;94531.94;5101980;28;20034;-89
2023/05/18 06:03:44;;;;;;;11.23;8.55;;;;;;;16.06;100.00;94525.41;5085427;28;20027;-88
2023/05/18 06:06:10;;;;;;;11.13;8.15;;;;;;;16.13;100.00;94525.00;5102085;28;20115;-88
2023/05/18 06:08:35;;;;;;;11.80;7.95;;;;;;;16.54;100.00;94532.81;5085084;28;20032;-88
2023/05/18 06:11:01;;;;;;;18.23;9.73;;;;;;;15.57;100.00;94533.78;5085224;28;20034;-88
2023/05/18 06:13:37;;;;;;;14.98;9.82;;;;;;;15.48;100.00;94531.06;5101956;28;20330;-88
2023/05/18 06:16:03;;;;;;;11.40;9.10;;;;;;;16.03;100.00;94526.03;5085147;28;20344;-88
2023/05/18 06:18:29;;;;;;;11.18;8.02;;;;;;;16.28;100.00;94529.94;5085071;28;20032;-88
2023/05/18 06:20:54;;;;;;;14.68;8.10;;;;;;;15.73;100.00;94536.13;5101549;28;20072;-88
2023/05/18 06:23:22;;;;;;;15.00;7.90;;;;;;;16.49;100.00;94527.63;5104345;27;20037;-88
2023/05/18 06:25:48;;;;;;;10.00;6.28;;;;;;;16.63;100.00;94532.88;5121908;27;20087;-87
2023/05/18 06:28:13;;;;;;;15.93;7.22;;;;;;;16.56;100.00;94524.56;5122405;27;20070;-88
2023/05/18 06:30:39;;;;;;;11.90;6.88;;;;;;;16.20;100.00;94522.75;5121697;27;20063;-87
2023/05/18 06:33:05;;;;;;;9.23;4.35;;;;;;;16.55;100.00;94525.63;5122112;27;20061;-88
2023/05/18 06:35:31;;;;;;;3.58;2.70;;;;;;;16.71;100.00;94517.34;5104992;27;20447;-87
2023/05/18 06:37:56;;;;;;;5.95;2.65;;;;;;;16.44;100.00;94526.97;5140220;27;20034;-88
2023/05/18 06:40:21;;;;;;;5.50;1.92;;;;;;;16.24;100.00;94531.63;5105019;27;20420;-87
2023/05/18 06:42:47;;;;;;;9.20;2.10;;;;;;;15.90;100.00;94538.19;5121723;27;20359;-88
2023/05/18 06:45:12;;;;;;;6.45;2.00;;;;;;;16.00;100.00;94537.19;5120534;27;20035;-86
2023/05/18 06:47:38;;;;;;;2.10;1.70;;;;;;;16.17;100.00;94532.06;5139646;27;20031;-85
2023/05/18 06:50:04;;;;;;;5.72;1.85;;;;;;;16.81;100.00;94539.06;5121491;27;20034;-87
2023/05/18 06:52:30;;;;;;;3.67;1.45;;;;;;;17.30;100.00;94543.66;5121705;27;20062;-86
2023/05/18 06:54:55;;;;;;;3.10;2.05;;;;;;;17.88;100.00;94535.72;5121279;27;20027;-86
2023/05/18 06:57:21;;;;;;;3.85;1.85;;;;;;;18.27;100.00;94527.22;5121518;27;20387;-87
2023/05/18 06:59:52;;;;;;;4.97;1.70;;;;;;;17.81;100.00;94530.13;5139859;27;20109;-87
2023/05/18 07:02:20;;;;;;;2.03;1.50;;;;;;;17.82;100.00;94523.72;5122022;27;20034;-88
2023/05/18 07:04:47;;;;;;;1.83;1.30;;;;;;;17.30;100.00;94529.66;5107667;28;20417;-87
2023/05/18 07:07:12;;;;;;;4.13;1.20;;;;;;;18.06;100.00;94527.81;5084590;28;20028;-87
2023/05/18 07:09:38;;;;;;;3.40;0.98;;;;;;;18.80;81.76;94520.00;5100771;28;20059;-87
2023/05/18 07:12:03;;;;;;;4.60;1.00;;;;;;;18.44;91.16;94527.22;5100889;28;20027;-87
2023/05/18 07:14:29;;;;;;;1.58;1.10;;;;;;;18.56;95.96;94523.91;5084427;28;20148;-88
2023/05/18 07:16:54;;;;;;;4.38;1.35;;;;;;;19.05;82.99;94525.59;5100746;28;20035;-88
2023/05/18 07:19:20;;;;;;;3.13;1.02;;;;;;;18.75;84.53;94522.81;5101285;28;20031;-88
2023/05/18 07:21:45;;;;;;;1.58;0.80;;;;;;;18.57;94.85;94522.06;5100459;28;20027;-88
2023/05/18 07:24:11;;;;;;;3.08;0.90;;;;;;;19.06;87.13;94527.91;5100943;28;20121;-88
2023/05/18 07:26:38;;;;;;;5.05;1.20;;;;;;;18.22;88.23;94521.00;5104013;28;20034;-88
2023/05/18 07:29:06;;;;;;;5.72;1.10;;;;;;;17.66;100.00;94523.38;5119108;28;20332;-87
2023/05/18 07:31:39;;;;;;;4.30;0.80;;;;;;;17.70;100.00;94528.84;5118937;28;20114;-87
2023/05/18 07:34:08;;;;;;;2.20;1.08;;;;;;;17.81;100.00;94522.16;5118169;28;20072;-87
2023/05/18 07:36:33;;;;;;;5.10;2.63;;;;;;;17.56;100.00;94535.03;5118503;28;20051;-87
2023/05/18 07:39:02;;;;;;;4.95;1.52;;;;;;;18.31;94.92;94523.66;5117587;28;20027;-87
2023/05/18 07:41:30;;;;;;;5.22;1.30;;;;;;;17.71;100.00;94531.16;5118858;28;20035;-87
2023/05/18 07:44:06;;;;;;;;;;;;;;;;;;;;;
2023/05/18 07:46:34;;;;;;;3.17;1.10;;;;;;;18.57;89.02;94537.97;5116862;28;20038;-87
2023/05/18 07:49:04;;;;;;;5.18;0.95;;;;;;;17.48;89.78;94539.22;5116976;28;20031;-87
2023/05/18 07:51:30;;;;;;;5.07;1.10;;;;;;;18.14;100.00;94542.97;5118499;28;20118;-88
2023/05/18 07:53:59;;;;;;;7.90;1.05;;;;;;;18.41;93.27;94535.00;5116988;28;20077;-87
2023/05/18 07:56:27;;;;;;;4.38;1.52;;;;;;;17.79;100.00;94540.25;5100454;28;20036;-88
2023/05/18 07:58:54;;;;;;;5.80;1.05;;;;;;;18.44;100.00;94543.13;5116615;28;20031;-88
2023/05/18 08:01:30;;;;;;;;;;;;;;;;;;;;;
2023/05/18 08:03:59;;;;;;;5.75;1.13;;;;;;;19.30;84.62;94547.06;5117034;28;20020;-87
2023/05/18 08:06:35;;;;;;;;;;;;;;;;;;;;;
2023/05/18 08:09:20;;;;;;;2.13;0.75;;;;;;;20.10;80.17;94550.13;5117700;28;20034;-87
2023/05/18 08:11:52;;;;;;;2.50;1.00;;;;;;;19.35;88.30;94550.31;5100458;28;20067;-87
2023/05/18 08:14:27;;;;;;;;;;;;;;;;;;;;;
2023/05/18 08:16:53;;;;;;;4.55;1.15;;;;;;;20.29;83.55;94544.34;5116509;28;20022;-87
2023/05/18 08:19:18;;;;;;;4.60;0.98;;;;;;;19.76;81.63;94550.75;5117705;28;20419;-86
2023/05/18 08:21:45;;;;;;;3.33;0.82;;;;;;;19.57;78.16;94550.38;5117022;28;20074;-87
2023/05/18 08:24:11;;;;;;;5.40;1.00;;;;;;;19.87;76.19;94555.69;5116476;28;20024;-87
2023/05/18 08:26:39;;;;;;;1.85;0.80;;;;;;;20.44;76.38;94549.09;5117657;28;20485;-87
2023/05/18 08:29:08;;;;;;;2.22;0.93;;;;;;;20.25;76.08;94546.13;5100286;28;20092;-86
2023/05/18 08:31:35;;;;;;;2.95;1.00;;;;;;;20.03;81.01;94550.63;5116320;28;20028;-87
2023/05/18 08:34:02;;;;;;;1.70;0.98;;;;;;;19.98;81.93;94548.19;5116333;28;20051;-84
2023/05/18 08:36:28;;;;;;;3.25;1.00;;;;;;;21.28;74.36;94550.03;5116263;28;20035;-86
2023/05/18 08:38:53;;;;;;;2.53;0.90;;;;;;;21.69;65.35;94552.09;5116160;28;20149;-86
2023/05/18 08:41:22;;;;;;;3.15;0.82;;;;;;;21.64;63.50;94553.06;5117227;28;20027;-86
2023/05/18 08:43:53;;;;;;;6.43;1.13;;;;;;;20.43;66.69;94552.84;5116076;28;20111;-85
2023/05/18 08:46:18;;;;;;;2.05;0.90;;;;;;;21.10;66.51;94556.66;5115081;28;20031;-85
2023/05/18 08:48:49;;;;;;;2.20;0.93;;;;;;;21.75;61.00;94554.22;5115712;28;20035;-86
2023/05/18 08:51:18;;;;;;;1.70;0.80;;;;;;;20.84;79.43;94544.41;5098653;28;20047;-86
2023/05/18 08:53:52;;;;;;;3.30;1.13;;;;;;;21.40;68.02;94549.25;5115154;28;20489;-87
2023/05/18 08:56:21;;;;;;;8.60;1.35;;;;;;;20.99;69.86;94558.97;5098554;28;20417;-87
2023/05/18 08:58:49;;;;;;;3.92;1.35;;;;;;;20.92;72.66;94559.50;5115419;28;20035;-88
2023/05/18 09:01:15;;;;;;;4.78;1.10;;;;;;;21.15;66.67;94565.22;5116227;28;20440;-87
2023/05/18 09:03:40;;;;;;;2.22;1.10;;;;;;;22.34;60.04;94561.22;5116117;28;20028;-87
2023/05/18 09:06:06;;;;;;;3.85;1.20;;;;;;;20.70;60.88;94561.41;5116217;28;20031;-86
2023/05/18 09:08:32;;;;;;;1.98;0.90;;;;;;;20.83;63.49;94562.25;5116101;28;20034;-87
2023/05/18 09:11:00;;;;;;;3.22;1.00;;;;;;;21.91;58.23;94566.84;5116045;28;20039;-86
2023/05/18 09:13:26;;;;;;;2.95;0.98;;;;;;;22.35;58.37;94571.56;5115801;28;20433;-85
2023/05/18 09:15:51;;;;;;;2.35;0.90;;;;;;;21.89;57.71;94575.19;5115699;28;20157;-86
2023/05/18 09:18:16;;;;;;;3.28;0.80;;;;;;;19.85;70.95;94565.88;5098946;28;20030;-87
2023/05/18 09:20:42;;;;;;;4.13;0.90;;;;;;;18.99;63.90;94570.13;5099119;28;20026;-87
2023/05/18 09:23:07;;;;;;;2.83;0.88;;;;;;;19.51;66.48;94573.72;5115964;28;20028;-87
2023/05/18 09:25:35;;;;;;;1.52;0.90;;;;;;;20.11;63.75;94576.41;5099090;28;20027;-86
2023/05/18 09:28:02;;;;;;;1.50;1.00;;;;;;;19.97;64.53;94578.53;5114541;28;20330;-86
2023/05/18 09:30:28;;;;;;;2.33;1.02;;;;;;;19.80;64.00;94580.16;5115484;28;20047;-86
2023/05/18 09:32:53;;;;;;;2.92;0.90;;;;;;;20.07;64.35;94588.78;5098780;28;20032;-86
2023/05/18 09:35:19;;;;;;;7.03;1.10;;;;;;;19.41;72.39;94588.09;5115467;28;20032;-86
2023/05/18 09:37:45;;;;;;;2.28;1.08;;;;;;;20.17;69.20;94584.97;5098732;28;20500;-85
2023/05/18 09:40:10;;;;;;;4.68;0.90;;;;;;;20.17;69.33;94584.97;5098774;28;20382;-85
2023/05/18 09:42:43;;;;;;;2.67;1.10;;;;;;;19.81;75.64;94587.03;5115496;28;20080;-86
2023/05/18 09:45:09;;;;;;;6.72;1.00;;;;;;;19.46;74.33;94587.94;5098341;28;20032;-85
2023/05/18 09:47:35;;;;;;;2.10;1.10;;;;;;;20.24;65.90;94587.13;5116645;28;20390;-86
2023/05/18 09:50:00;;;;;;;4.70;0.95;;;;;;;19.64;73.58;94587.88;5115299;28;20039;-86
2023/05/18 09:52:25;;;;;;;2.00;0.90;;;;;;;20.82;67.22;94589.22;5115365;28;20432;-86
2023/05/18 09:54:59;;;;;;;5.65;1.00;;;;;;;19.90;76.76;94595.72;5115293;28;20433;-86
2023/05/18 09:57:25;;;;;;;1.30;1.00;;;;;;;20.62;69.30;94594.97;5101274;28;20035;-86
2023/05/18 09:59:55;;;;;;;3.85;1.40;;;;;;;20.44;67.04;94586.34;5118981;28;20433;-86
2023/05/18 10:02:24;;;;;;;2.17;1.00;;;;;;;20.11;68.47;94581.72;5118903;28;20024;-86
2023/05/18 10:04:49;;;;;;;1.20;0.88;;;;;;;20.48;66.42;94589.91;5132672;27;20048;-86
2023/05/18 10:07:16;;;;;;;8.80;1.23;;;;;;;19.47;66.12;94584.19;5106071;28;20023;-86
2023/05/18 10:09:43;;;;;;;6.68;1.23;;;;;;;19.00;77.58;94582.28;5085260;28;20034;-85
2023/05/18 10:12:14;;;;;;;1.80;1.05;;;;;;;18.17;77.27;94590.06;5101771;28;20023;-85
2023/05/18 10:14:44;;;;;;;1.88;0.80;;;;;;;18.54;75.62;94596.97;5084926;28;20346;-86
2023/05/18 10:17:14;;;;;;;2.53;0.98;;;;;;;18.40;77.49;94595.25;5084725;28;20554;-85
2023/05/18 10:19:43;;;;;;;1.85;0.93;;;;;;;18.77;73.89;94595.72;5101621;28;20027;-86
2023/05/18 10:22:09;;;;;;;9.20;1.42;;;;;;;18.21;77.49;94598.97;5101998;28;20023;-85
2023/05/18 10:24:38;;;;;;;8.27;1.15;;;;;;;18.93;73.97;94593.34;5085068;28;20557;-85
2023/05/18 10:27:08;;;;;;;5.43;1.20;;;;;;;18.59;80.57;94592.31;5084624;28;20039;-85
2023/05/18 10:29:37;;;;;;;9.93;1.08;;;;;;;18.06;88.87;94607.34;5101414;28;20454;-86
2023/05/18 10:32:03;;;;;;;2.47;1.13;;;;;;;18.06;94.83;94602.06;5116871;27;20355;-85
2023/05/18 10:34:31;;;;;;;3.85;2.30;;;;;;;18.24;90.40;94605.53;5122193;27;20336;-85
2023/05/18 10:36:57;;;;;;;4.03;1.20;;;;;;;18.22;87.42;94597.91;5121711;27;20031;-86
2023/05/18 10:39:23;;;;;;;5.43;1.65;;;;;;;18.55;81.46;94604.63;5121794;27;20053;-86
2023/05/18 10:41:52;;;;;;;5.57;1.35;;;;;;;17.94;99.02;94600.78;5122071;27;20051;-85
2023/05/18 10:44:18;;;;;;;2.72;1.05;;;;;;;18.14;92.55;94603.97;5105201;27;20038;-86
2023/05/18 10:46:53;;;;;;;4.68;1.20;;;;;;;18.55;89.67;94606.50;5121660;27;20035;-85
2023/05/18 10:49:24;;;;;;;5.22;1.30;;;;;;;18.58;88.59;94597.91;5105321;27;20363;-86
2023/05/18 10:51:52;;;;;;;1.20;0.90;;;;;;;18.77;91.55;94600.25;5104911;27;20035;-85
2023/05/18 10:54:18;;;;;;;4.63;1.15;;;;;;;18.45;89.90;94595.09;5121666;27;20420;-85
2023/05/18 10:56:49;;;;;;;2.55;0.90;;;;;;;18.28;94.37;94595.84;5121374;27;20480;-85
2023/05/18 10:59:17;;;;;;;1.38;1.13;;;;;;;18.63;91.88;94595.09;5121896;27;20428;-85
2023/05/18 11:01:45;;;;;;;7.45;1.48;;;;;;;18.31;94.94;94594.47;5105120;27;20340;-85
2023/05/18 11:04:11;;;;;;;2.55;1.23;;;;;;;18.63;93.98;94595.88;5121496;27;20451;-85
2023/05/18 11:06:36;;;;;;;3.97;1.30;;;;;;;18.94;88.10;94589.59;5121207;27;20027;-85
2023/05/18 11:09:02;;;;;;;3.25;1.30;;;;;;;18.77;91.54;94585.09;5120457;27;20428;-85
2023/05/18 11:11:36;;;;;;;6.50;1.70;;;;;;;18.42;90.23;94579.00;5121644;27;20038;-85
2023/05/18 11:14:02;;;;;;;3.53;1.27;;;;;;;19.19;88.63;94586.47;5122314;27;20391;-85
2023/05/18 11:16:35;;;;;;;2.22;0.95;;;;;;;19.23;84.58;94584.75;5120838;27;20054;-85
2023/05/18 11:19:10;;;;;;;7.57;1.40;;;;;;;18.82;83.63;94583.38;5120863;27;20030;-85
2023/05/18 11:21:35;;;;;;;6.95;1.75;;;;;;;19.10;89.41;94578.50;5103847;27;20023;-85
2023/05/18 11:24:21;;;;;;;6.75;1.30;;;;;;;18.90;95.55;94577.28;5121230;27;20344;-85
2023/05/18 11:27:03;;;;;;;4.20;1.50;;;;;;;18.64;98.05;94586.81;5103914;27;20027;-85
2023/05/18 11:29:39;;;;;;;9.10;1.65;;;;;;;18.19;96.75;94582.59;5121059;27;20034;-85